sensor_id;sensor_type;location;lat;lon;timestamp;P1;durP1;ratioP1;P2;durP2;ratioP2
15673;SDS011;7937;48.090;16.212;2023-07-02T00:00:31;4.43;;;2.60;;
15673;SDS011;7937;48.090;16.212;2023-07-02T00:03:33;6.07;;;2.93;;
15673;SDS011;7937;48.090;16.212;2023-07-02T00:06:35;4.47;;;2.30;;
15673;SDS011;7937;48.090;16.212;2023-07-02T00:09:42;3.90;;;2.17;;
15673;SDS011;7937;48.090;16.212;2023-07-02T00:12:44;3.23;;;2.23;;
15673;SDS011;7937;48.090;16.212;2023-07-02T00:15:46;2.80;;;2.07;;
15673;SDS011;7937;48.090;16.212;2023-07-02T00:18:48;3.60;;;2.10;;
15673;SDS011;7937;48.090;16.212;2023-07-02T00:21:54;2.17;;;1.97;;
15673;SDS011;7937;48.090;16.212;2023-07-02T00:24:57;3.17;;;2.37;;
15673;SDS011;7937;48.090;16.212;2023-07-02T00:27:59;2.60;;;2.40;;
15673;SDS011;7937;48.090;16.212;2023-07-02T00:31:01;2.57;;;2.37;;
15673;SDS011;7937;48.090;16.212;2023-07-02T00:34:04;2.27;;;2.07;;
15673;SDS011;7937;48.090;16.212;2023-07-02T00:37:06;4.10;;;2.47;;
15673;SDS011;7937;48.090;16.212;2023-07-02T00:40:08;3.30;;;2.10;;
15673;SDS011;7937;48.090;16.212;2023-07-02T00:43:11;4.00;;;2.10;;
15673;SDS011;7937;48.090;16.212;2023-07-02T00:46:15;2.77;;;1.90;;
15673;SDS011;7937;48.090;16.212;2023-07-02T00:49:24;4.60;;;2.30;;
15673;SDS011;7937;48.090;16.212;2023-07-02T00:52:27;2.83;;;2.07;;
15673;SDS011;7937;48.090;16.212;2023-07-02T00:55:29;3.73;;;1.97;;
15673;SDS011;7937;48.090;16.212;2023-07-02T00:58:32;3.90;;;1.97;;
15673;SDS011;7937;48.090;16.212;2023-07-02T01:01:40;3.23;;;2.20;;
15673;SDS011;7937;48.090;16.212;2023-07-02T01:04:42;2.37;;;1.93;;
15673;SDS011;7937;48.090;16.212;2023-07-02T01:07:52;2.30;;;2.10;;
15673;SDS011;7937;48.090;16.212;2023-07-02T01:10:54;2.30;;;1.80;;
15673;SDS011;7937;48.090;16.212;2023-07-02T01:13:59;3.03;;;1.87;;
15673;SDS011;7937;48.090;16.212;2023-07-02T01:17:05;4.80;;;2.07;;
15673;SDS011;7937;48.090;16.212;2023-07-02T01:20:09;2.63;;;2.07;;
15673;SDS011;7937;48.090;16.212;2023-07-02T01:23:12;2.00;;;1.80;;
15673;SDS011;7937;48.090;16.212;2023-07-02T01:26:14;2.17;;;1.70;;
15673;SDS011;7937;48.090;16.212;2023-07-02T01:29:17;2.80;;;2.00;;
15673;SDS011;7937;48.090;16.212;2023-07-02T01:32:21;2.30;;;1.67;;
15673;SDS011;7937;48.090;16.212;2023-07-02T01:35:25;2.50;;;1.83;;
15673;SDS011;7937;48.090;16.212;2023-07-02T01:38:27;3.10;;;1.90;;
15673;SDS011;7937;48.090;16.212;2023-07-02T01:41:29;2.23;;;1.97;;
15673;SDS011;7937;48.090;16.212;2023-07-02T01:44:31;4.13;;;2.20;;
15673;SDS011;7937;48.090;16.212;2023-07-02T01:47:33;4.83;;;2.07;;
15673;SDS011;7937;48.090;16.212;2023-07-02T01:50:36;4.20;;;1.87;;
15673;SDS011;7937;48.090;16.212;2023-07-02T01:53:38;2.93;;;2.00;;
15673;SDS011;7937;48.090;16.212;2023-07-02T01:56:40;2.53;;;2.17;;
15673;SDS011;7937;48.090;16.212;2023-07-02T01:59:42;5.70;;;2.30;;
15673;SDS011;7937;48.090;16.212;2023-07-02T02:02:45;2.43;;;2.10;;
15673;SDS011;7937;48.090;16.212;2023-07-02T02:05:47;2.73;;;1.90;;
15673;SDS011;7937;48.090;16.212;2023-07-02T02:08:49;2.47;;;1.77;;
15673;SDS011;7937;48.090;16.212;2023-07-02T02:11:51;3.37;;;2.20;;
15673;SDS011;7937;48.090;16.212;2023-07-02T02:14:54;2.63;;;2.03;;
15673;SDS011;7937;48.090;16.212;2023-07-02T02:17:56;4.13;;;1.93;;
15673;SDS011;7937;48.090;16.212;2023-07-02T02:20:58;5.57;;;2.00;;
15673;SDS011;7937;48.090;16.212;2023-07-02T02:24:00;2.70;;;2.00;;
15673;SDS011;7937;48.090;16.212;2023-07-02T02:27:02;4.00;;;2.07;;
15673;SDS011;7937;48.090;16.212;2023-07-02T02:30:06;2.53;;;2.27;;
15673;SDS011;7937;48.090;16.212;2023-07-02T02:33:10;3.47;;;2.07;;
15673;SDS011;7937;48.090;16.212;2023-07-02T02:36:12;2.47;;;2.10;;
15673;SDS011;7937;48.090;16.212;2023-07-02T02:39:14;2.63;;;2.43;;
15673;SDS011;7937;48.090;16.212;2023-07-02T02:42:16;2.40;;;2.20;;
15673;SDS011;7937;48.090;16.212;2023-07-02T02:45:18;2.77;;;2.57;;
15673;SDS011;7937;48.090;16.212;2023-07-02T02:48:20;2.63;;;2.43;;
15673;SDS011;7937;48.090;16.212;2023-07-02T02:51:24;6.07;;;2.50;;
15673;SDS011;7937;48.090;16.212;2023-07-02T02:54:26;2.30;;;2.10;;
15673;SDS011;7937;48.090;16.212;2023-07-02T02:57:29;2.53;;;2.33;;
15673;SDS011;7937;48.090;16.212;2023-07-02T03:00:31;3.10;;;2.80;;
15673;SDS011;7937;48.090;16.212;2023-07-02T03:03:33;2.90;;;2.70;;
15673;SDS011;7937;48.090;16.212;2023-07-02T03:06:39;3.87;;;2.87;;
15673;SDS011;7937;48.090;16.212;2023-07-02T03:09:41;4.50;;;2.63;;
15673;SDS011;7937;48.090;16.212;2023-07-02T03:12:43;4.50;;;2.90;;
15673;SDS011;7937;48.090;16.212;2023-07-02T03:15:46;3.03;;;2.73;;
15673;SDS011;7937;48.090;16.212;2023-07-02T03:18:48;3.07;;;2.80;;
15673;SDS011;7937;48.090;16.212;2023-07-02T03:21:50;3.20;;;2.40;;
15673;SDS011;7937;48.090;16.212;2023-07-02T03:24:52;2.83;;;2.63;;
15673;SDS011;7937;48.090;16.212;2023-07-02T03:27:54;3.00;;;2.33;;
15673;SDS011;7937;48.090;16.212;2023-07-02T03:30:56;2.77;;;2.47;;
15673;SDS011;7937;48.090;16.212;2023-07-02T03:33:59;3.80;;;2.83;;
15673;SDS011;7937;48.090;16.212;2023-07-02T03:37:05;2.70;;;2.47;;
15673;SDS011;7937;48.090;16.212;2023-07-02T03:40:07;4.40;;;2.73;;
15673;SDS011;7937;48.090;16.212;2023-07-02T03:43:09;3.90;;;2.70;;
15673;SDS011;7937;48.090;16.212;2023-07-02T03:46:11;6.57;;;2.83;;
15673;SDS011;7937;48.090;16.212;2023-07-02T03:49:13;3.73;;;2.60;;
15673;SDS011;7937;48.090;16.212;2023-07-02T03:52:16;3.57;;;2.70;;
15673;SDS011;7937;48.090;16.212;2023-07-02T03:55:18;3.07;;;2.77;;
15673;SDS011;7937;48.090;16.212;2023-07-02T03:58:21;2.83;;;2.63;;
15673;SDS011;7937;48.090;16.212;2023-07-02T04:01:23;3.77;;;2.80;;
15673;SDS011;7937;48.090;16.212;2023-07-02T04:04:25;7.20;;;2.77;;
15673;SDS011;7937;48.090;16.212;2023-07-02T04:07:28;4.23;;;2.70;;
15673;SDS011;7937;48.090;16.212;2023-07-02T04:10:31;3.30;;;3.00;;
15673;SDS011;7937;48.090;16.212;2023-07-02T04:13:35;3.73;;;3.00;;
15673;SDS011;7937;48.090;16.212;2023-07-02T04:16:38;2.90;;;2.60;;
15673;SDS011;7937;48.090;16.212;2023-07-02T04:19:40;2.83;;;2.37;;
15673;SDS011;7937;48.090;16.212;2023-07-02T04:22:42;2.80;;;2.33;;
15673;SDS011;7937;48.090;16.212;2023-07-02T04:25:44;3.77;;;2.93;;
15673;SDS011;7937;48.090;16.212;2023-07-02T04:29:06;3.57;;;2.70;;
15673;SDS011;7937;48.090;16.212;2023-07-02T04:32:08;6.80;;;3.00;;
15673;SDS011;7937;48.090;16.212;2023-07-02T04:35:10;2.50;;;2.27;;
15673;SDS011;7937;48.090;16.212;2023-07-02T04:38:13;3.33;;;2.30;;
15673;SDS011;7937;48.090;16.212;2023-07-02T04:41:16;2.60;;;2.40;;
15673;SDS011;7937;48.090;16.212;2023-07-02T04:44:20;3.67;;;2.80;;
15673;SDS011;7937;48.090;16.212;2023-07-02T04:47:30;3.00;;;2.03;;
15673;SDS011;7937;48.090;16.212;2023-07-02T04:50:33;4.93;;;2.50;;
15673;SDS011;7937;48.090;16.212;2023-07-02T04:53:35;3.00;;;2.70;;
15673;SDS011;7937;48.090;16.212;2023-07-02T04:56:39;3.03;;;2.33;;
15673;SDS011;7937;48.090;16.212;2023-07-02T04:59:42;2.50;;;2.10;;
15673;SDS011;7937;48.090;16.212;2023-07-02T05:02:44;3.30;;;2.13;;
15673;SDS011;7937;48.090;16.212;2023-07-02T05:05:46;4.27;;;2.40;;
15673;SDS011;7937;48.090;16.212;2023-07-02T05:08:48;2.43;;;2.23;;
15673;SDS011;7937;48.090;16.212;2023-07-02T05:11:51;3.67;;;2.10;;
15673;SDS011;7937;48.090;16.212;2023-07-02T05:14:53;2.20;;;2.00;;
15673;SDS011;7937;48.090;16.212;2023-07-02T05:17:55;2.53;;;2.27;;
15673;SDS011;7937;48.090;16.212;2023-07-02T05:20:57;3.33;;;2.30;;
15673;SDS011;7937;48.090;16.212;2023-07-02T05:23:59;2.97;;;2.37;;
15673;SDS011;7937;48.090;16.212;2023-07-02T05:27:01;2.30;;;2.10;;
15673;SDS011;7937;48.090;16.212;2023-07-02T05:30:04;3.93;;;2.27;;
15673;SDS011;7937;48.090;16.212;2023-07-02T05:33:06;2.07;;;1.77;;
15673;SDS011;7937;48.090;16.212;2023-07-02T05:36:08;2.97;;;1.97;;
15673;SDS011;7937;48.090;16.212;2023-07-02T05:39:11;2.40;;;2.00;;
15673;SDS011;7937;48.090;16.212;2023-07-02T05:42:13;2.63;;;2.00;;
15673;SDS011;7937;48.090;16.212;2023-07-02T05:45:15;2.30;;;2.10;;
15673;SDS011;7937;48.090;16.212;2023-07-02T05:48:17;2.23;;;2.03;;
15673;SDS011;7937;48.090;16.212;2023-07-02T05:51:23;2.07;;;1.80;;
15673;SDS011;7937;48.090;16.212;2023-07-02T05:54:26;2.07;;;1.60;;
15673;SDS011;7937;48.090;16.212;2023-07-02T05:57:28;2.40;;;2.20;;
15673;SDS011;7937;48.090;16.212;2023-07-02T06:00:30;2.27;;;2.07;;
15673;SDS011;7937;48.090;16.212;2023-07-02T06:03:32;2.40;;;2.20;;
15673;SDS011;7937;48.090;16.212;2023-07-02T06:06:35;2.33;;;2.13;;
15673;SDS011;7937;48.090;16.212;2023-07-02T06:09:37;3.43;;;2.20;;
15673;SDS011;7937;48.090;16.212;2023-07-02T06:12:39;1.97;;;1.80;;
15673;SDS011;7937;48.090;16.212;2023-07-02T06:15:41;2.90;;;1.80;;
15673;SDS011;7937;48.090;16.212;2023-07-02T06:18:44;1.80;;;1.70;;
15673;SDS011;7937;48.090;16.212;2023-07-02T06:21:46;2.10;;;1.57;;
15673;SDS011;7937;48.090;16.212;2023-07-02T06:24:48;3.60;;;1.60;;
15673;SDS011;7937;48.090;16.212;2023-07-02T06:27:50;1.83;;;1.37;;
15673;SDS011;7937;48.090;16.212;2023-07-02T06:30:54;2.03;;;1.90;;
15673;SDS011;7937;48.090;16.212;2023-07-02T06:33:56;2.47;;;1.30;;
15673;SDS011;7937;48.090;16.212;2023-07-02T06:36:58;1.50;;;1.40;;
15673;SDS011;7937;48.090;16.212;2023-07-02T06:40:00;3.27;;;1.80;;
15673;SDS011;7937;48.090;16.212;2023-07-02T06:43:02;1.97;;;1.83;;
15673;SDS011;7937;48.090;16.212;2023-07-02T06:46:04;3.07;;;2.33;;
15673;SDS011;7937;48.090;16.212;2023-07-02T06:49:07;3.87;;;1.97;;
15673;SDS011;7937;48.090;16.212;2023-07-02T06:52:09;2.40;;;2.20;;
15673;SDS011;7937;48.090;16.212;2023-07-02T06:55:11;3.53;;;2.43;;
15673;SDS011;7937;48.090;16.212;2023-07-02T06:58:13;4.37;;;2.30;;
15673;SDS011;7937;48.090;16.212;2023-07-02T07:01:15;2.80;;;2.60;;
15673;SDS011;7937;48.090;16.212;2023-07-02T07:04:17;3.73;;;2.40;;
15673;SDS011;7937;48.090;16.212;2023-07-02T07:07:20;2.23;;;1.90;;
15673;SDS011;7937;48.090;16.212;2023-07-02T07:10:22;3.20;;;2.30;;
15673;SDS011;7937;48.090;16.212;2023-07-02T07:13:24;2.30;;;2.10;;
15673;SDS011;7937;48.090;16.212;2023-07-02T07:16:26;1.87;;;1.77;;
15673;SDS011;7937;48.090;16.212;2023-07-02T07:19:28;2.20;;;2.00;;
15673;SDS011;7937;48.090;16.212;2023-07-02T07:22:30;2.33;;;2.13;;
15673;SDS011;7937;48.090;16.212;2023-07-02T07:25:32;2.37;;;2.17;;
15673;SDS011;7937;48.090;16.212;2023-07-02T07:28:34;2.10;;;1.90;;
15673;SDS011;7937;48.090;16.212;2023-07-02T07:31:37;2.73;;;2.53;;
15673;SDS011;7937;48.090;16.212;2023-07-02T07:34:39;3.97;;;3.23;;
15673;SDS011;7937;48.090;16.212;2023-07-02T07:37:41;3.43;;;3.13;;
15673;SDS011;7937;48.090;16.212;2023-07-02T07:40:43;3.90;;;2.70;;
15673;SDS011;7937;48.090;16.212;2023-07-02T07:43:45;3.83;;;2.93;;
15673;SDS011;7937;48.090;16.212;2023-07-02T07:46:48;5.10;;;2.93;;
15673;SDS011;7937;48.090;16.212;2023-07-02T07:49:50;2.53;;;2.33;;
15673;SDS011;7937;48.090;16.212;2023-07-02T07:52:52;3.57;;;2.67;;
15673;SDS011;7937;48.090;16.212;2023-07-02T07:55:54;3.17;;;2.70;;
15673;SDS011;7937;48.090;16.212;2023-07-02T07:58:56;2.60;;;2.40;;
15673;SDS011;7937;48.090;16.212;2023-07-02T08:01:59;3.67;;;2.67;;
15673;SDS011;7937;48.090;16.212;2023-07-02T08:05:02;4.37;;;2.77;;
15673;SDS011;7937;48.090;16.212;2023-07-02T08:08:05;2.70;;;2.47;;
15673;SDS011;7937;48.090;16.212;2023-07-02T08:11:07;3.47;;;2.60;;
15673;SDS011;7937;48.090;16.212;2023-07-02T08:14:09;2.50;;;2.30;;
15673;SDS011;7937;48.090;16.212;2023-07-02T08:17:11;2.57;;;2.37;;
15673;SDS011;7937;48.090;16.212;2023-07-02T08:20:13;3.53;;;2.13;;
15673;SDS011;7937;48.090;16.212;2023-07-02T08:23:15;4.07;;;2.20;;
15673;SDS011;7937;48.090;16.212;2023-07-02T08:26:17;2.27;;;2.07;;
15673;SDS011;7937;48.090;16.212;2023-07-02T08:29:20;2.50;;;1.87;;
15673;SDS011;7937;48.090;16.212;2023-07-02T08:32:22;2.80;;;2.20;;
15673;SDS011;7937;48.090;16.212;2023-07-02T08:35:24;2.37;;;2.17;;
15673;SDS011;7937;48.090;16.212;2023-07-02T08:38:27;2.17;;;2.07;;
15673;SDS011;7937;48.090;16.212;2023-07-02T08:41:29;2.47;;;1.80;;
15673;SDS011;7937;48.090;16.212;2023-07-02T08:44:31;2.40;;;2.20;;
15673;SDS011;7937;48.090;16.212;2023-07-02T08:47:33;2.27;;;1.93;;
15673;SDS011;7937;48.090;16.212;2023-07-02T08:50:35;5.43;;;2.30;;
15673;SDS011;7937;48.090;16.212;2023-07-02T08:53:38;4.10;;;2.00;;
15673;SDS011;7937;48.090;16.212;2023-07-02T08:56:40;1.93;;;1.83;;
15673;SDS011;7937;48.090;16.212;2023-07-02T08:59:43;2.27;;;1.80;;
15673;SDS011;7937;48.090;16.212;2023-07-02T09:02:45;2.40;;;1.97;;
15673;SDS011;7937;48.090;16.212;2023-07-02T09:05:49;2.80;;;2.13;;
15673;SDS011;7937;48.090;16.212;2023-07-02T09:09:02;3.70;;;1.80;;
15673;SDS011;7937;48.090;16.212;2023-07-02T09:12:06;3.17;;;2.50;;
15673;SDS011;7937;48.090;16.212;2023-07-02T09:15:08;2.00;;;1.90;;
15673;SDS011;7937;48.090;16.212;2023-07-02T09:18:28;2.20;;;2.00;;
15673;SDS011;7937;48.090;16.212;2023-07-02T09:22:05;3.33;;;2.00;;
15673;SDS011;7937;48.090;16.212;2023-07-02T09:25:03;2.17;;;1.80;;
15673;SDS011;7937;48.090;16.212;2023-07-02T09:31:18;2.00;;;1.90;;
15673;SDS011;7937;48.090;16.212;2023-07-02T09:34:26;2.60;;;1.90;;
15673;SDS011;7937;48.090;16.212;2023-07-02T09:37:34;2.77;;;2.30;;
15673;SDS011;7937;48.090;16.212;2023-07-02T09:40:37;2.00;;;1.80;;
15673;SDS011;7937;48.090;16.212;2023-07-02T09:43:47;1.90;;;1.80;;
15673;SDS011;7937;48.090;16.212;2023-07-02T09:46:54;3.07;;;2.10;;
15673;SDS011;7937;48.090;16.212;2023-07-02T09:50:03;3.33;;;2.43;;
15673;SDS011;7937;48.090;16.212;2023-07-02T09:53:10;2.23;;;1.90;;
15673;SDS011;7937;48.090;16.212;2023-07-02T09:56:12;3.23;;;2.13;;
15673;SDS011;7937;48.090;16.212;2023-07-02T09:59:14;3.97;;;2.00;;
15673;SDS011;7937;48.090;16.212;2023-07-02T10:02:16;3.60;;;2.20;;
15673;SDS011;7937;48.090;16.212;2023-07-02T10:05:25;2.53;;;1.97;;
15673;SDS011;7937;48.090;16.212;2023-07-02T10:08:31;3.23;;;2.23;;
15673;SDS011;7937;48.090;16.212;2023-07-02T10:11:33;2.43;;;1.90;;
15673;SDS011;7937;48.090;16.212;2023-07-02T10:14:42;3.57;;;2.10;;
15673;SDS011;7937;48.090;16.212;2023-07-02T10:17:53;2.00;;;1.90;;
15673;SDS011;7937;48.090;16.212;2023-07-02T10:20:57;2.60;;;2.20;;
15673;SDS011;7937;48.090;16.212;2023-07-02T10:24:12;4.40;;;2.33;;
15673;SDS011;7937;48.090;16.212;2023-07-02T10:27:16;5.50;;;2.07;;
15673;SDS011;7937;48.090;16.212;2023-07-02T10:30:18;1.87;;;1.70;;
15673;SDS011;7937;48.090;16.212;2023-07-02T10:33:20;3.23;;;2.23;;
15673;SDS011;7937;48.090;16.212;2023-07-02T10:36:24;2.67;;;2.43;;
15673;SDS011;7937;48.090;16.212;2023-07-02T10:39:27;2.43;;;2.23;;
15673;SDS011;7937;48.090;16.212;2023-07-02T10:42:31;2.43;;;2.20;;
15673;SDS011;7937;48.090;16.212;2023-07-02T10:45:35;2.10;;;1.97;;
15673;SDS011;7937;48.090;16.212;2023-07-02T10:48:38;2.63;;;1.80;;
15673;SDS011;7937;48.090;16.212;2023-07-02T10:51:42;2.47;;;2.13;;
15673;SDS011;7937;48.090;16.212;2023-07-02T10:54:46;3.33;;;2.50;;
15673;SDS011;7937;48.090;16.212;2023-07-02T10:57:49;2.10;;;1.90;;
15673;SDS011;7937;48.090;16.212;2023-07-02T11:00:54;2.37;;;2.17;;
15673;SDS011;7937;48.090;16.212;2023-07-02T11:03:58;2.67;;;1.87;;
15673;SDS011;7937;48.090;16.212;2023-07-02T11:07:04;2.33;;;2.13;;
15673;SDS011;7937;48.090;16.212;2023-07-02T11:10:07;2.50;;;2.10;;
15673;SDS011;7937;48.090;16.212;2023-07-02T11:13:14;2.27;;;2.07;;
15673;SDS011;7937;48.090;16.212;2023-07-02T11:16:24;2.90;;;2.33;;
15673;SDS011;7937;48.090;16.212;2023-07-02T11:19:28;3.03;;;2.37;;
15673;SDS011;7937;48.090;16.212;2023-07-02T11:22:33;3.50;;;2.07;;
15673;SDS011;7937;48.090;16.212;2023-07-02T11:25:39;2.40;;;1.90;;
15673;SDS011;7937;48.090;16.212;2023-07-02T11:28:50;3.23;;;2.20;;
15673;SDS011;7937;48.090;16.212;2023-07-02T11:31:53;2.60;;;2.20;;
15673;SDS011;7937;48.090;16.212;2023-07-02T11:34:55;3.90;;;2.20;;
15673;SDS011;7937;48.090;16.212;2023-07-02T11:37:58;2.10;;;1.90;;
15673;SDS011;7937;48.090;16.212;2023-07-02T11:41:01;2.30;;;1.97;;
15673;SDS011;7937;48.090;16.212;2023-07-02T11:44:05;2.10;;;1.90;;
15673;SDS011;7937;48.090;16.212;2023-07-02T11:47:08;2.77;;;2.10;;
15673;SDS011;7937;48.090;16.212;2023-07-02T11:50:11;2.40;;;2.20;;
15673;SDS011;7937;48.090;16.212;2023-07-02T11:53:27;2.40;;;2.10;;
15673;SDS011;7937;48.090;16.212;2023-07-02T11:56:29;2.90;;;2.17;;
15673;SDS011;7937;48.090;16.212;2023-07-02T11:59:32;2.10;;;1.90;;
15673;SDS011;7937;48.090;16.212;2023-07-02T12:02:34;2.00;;;1.80;;
15673;SDS011;7937;48.090;16.212;2023-07-02T12:05:36;2.13;;;1.92;;
15673;SDS011;7937;48.090;16.212;2023-07-02T12:08:39;2.20;;;2.00;;
15673;SDS011;7937;48.090;16.212;2023-07-02T12:11:41;3.53;;;1.65;;
15673;SDS011;7937;48.090;16.212;2023-07-02T12:14:43;2.60;;;2.00;;
15673;SDS011;7937;48.090;16.212;2023-07-02T12:17:45;2.72;;;2.05;;
15673;SDS011;7937;48.090;16.212;2023-07-02T12:20:47;2.17;;;1.90;;
15673;SDS011;7937;48.090;16.212;2023-07-02T12:23:49;5.40;;;2.30;;
15673;SDS011;7937;48.090;16.212;2023-07-02T12:26:51;2.90;;;1.90;;
15673;SDS011;7937;48.090;16.212;2023-07-02T12:29:54;3.17;;;1.97;;
15673;SDS011;7937;48.090;16.212;2023-07-02T12:32:57;1.57;;;1.47;;
15673;SDS011;7937;48.090;16.212;2023-07-02T12:36:00;2.90;;;1.73;;
15673;SDS011;7937;48.090;16.212;2023-07-02T12:39:02;2.30;;;1.80;;
15673;SDS011;7937;48.090;16.212;2023-07-02T12:42:04;2.85;;;1.67;;
15673;SDS011;7937;48.090;16.212;2023-07-02T12:45:07;1.95;;;1.75;;
15673;SDS011;7937;48.090;16.212;2023-07-02T12:48:09;3.15;;;1.92;;
15673;SDS011;7937;48.090;16.212;2023-07-02T12:51:11;2.10;;;1.63;;
15673;SDS011;7937;48.090;16.212;2023-07-02T12:54:14;2.15;;;1.67;;
15673;SDS011;7937;48.090;16.212;2023-07-02T12:57:16;2.38;;;1.80;;
15673;SDS011;7937;48.090;16.212;2023-07-02T13:00:20;2.15;;;1.63;;
15673;SDS011;7937;48.090;16.212;2023-07-02T13:03:23;3.28;;;1.67;;
15673;SDS011;7937;48.090;16.212;2023-07-02T13:06:27;3.38;;;1.77;;
15673;SDS011;7937;48.090;16.212;2023-07-02T13:09:30;3.45;;;1.63;;
15673;SDS011;7937;48.090;16.212;2023-07-02T13:12:33;3.83;;;1.60;;
15673;SDS011;7937;48.090;16.212;2023-07-02T13:15:39;4.78;;;1.60;;
15673;SDS011;7937;48.090;16.212;2023-07-02T13:18:41;1.40;;;1.17;;
15673;SDS011;7937;48.090;16.212;2023-07-02T13:21:44;1.50;;;1.37;;
15673;SDS011;7937;48.090;16.212;2023-07-02T13:24:47;0.98;;;0.98;;
15673;SDS011;7937;48.090;16.212;2023-07-02T13:27:49;1.20;;;1.00;;
15673;SDS011;7937;48.090;16.212;2023-07-02T13:30:52;1.70;;;0.90;;
15673;SDS011;7937;48.090;16.212;2023-07-02T13:33:55;1.70;;;1.08;;
15673;SDS011;7937;48.090;16.212;2023-07-02T13:36:57;1.40;;;1.03;;
15673;SDS011;7937;48.090;16.212;2023-07-02T13:40:00;1.40;;;0.85;;
15673;SDS011;7937;48.090;16.212;2023-07-02T13:43:06;1.53;;;0.90;;
15673;SDS011;7937;48.090;16.212;2023-07-02T13:46:09;0.90;;;0.90;;
15673;SDS011;7937;48.090;16.212;2023-07-02T13:49:12;0.70;;;0.70;;
15673;SDS011;7937;48.090;16.212;2023-07-02T13:52:14;4.85;;;1.15;;
15673;SDS011;7937;48.090;16.212;2023-07-02T13:55:17;0.80;;;0.70;;
15673;SDS011;7937;48.090;16.212;2023-07-02T13:58:20;1.45;;;0.70;;
15673;SDS011;7937;48.090;16.212;2023-07-02T14:01:31;0.87;;;0.80;;
15673;SDS011;7937;48.090;16.212;2023-07-02T14:04:35;1.10;;;0.90;;
15673;SDS011;7937;48.090;16.212;2023-07-02T14:07:38;1.73;;;1.03;;
15673;SDS011;7937;48.090;16.212;2023-07-02T14:10:40;1.73;;;1.00;;
15673;SDS011;7937;48.090;16.212;2023-07-02T14:13:43;1.17;;;1.07;;
15673;SDS011;7937;48.090;16.212;2023-07-02T14:16:47;1.37;;;1.20;;
15673;SDS011;7937;48.090;16.212;2023-07-02T14:19:50;1.77;;;1.47;;
15673;SDS011;7937;48.090;16.212;2023-07-02T14:22:52;2.30;;;1.70;;
15673;SDS011;7937;48.090;16.212;2023-07-02T14:25:55;1.80;;;1.20;;
15673;SDS011;7937;48.090;16.212;2023-07-02T14:28:58;1.67;;;1.30;;
15673;SDS011;7937;48.090;16.212;2023-07-02T14:32:00;1.87;;;1.37;;
15673;SDS011;7937;48.090;16.212;2023-07-02T14:35:03;2.37;;;1.50;;
15673;SDS011;7937;48.090;16.212;2023-07-02T14:38:06;1.67;;;1.57;;
15673;SDS011;7937;48.090;16.212;2023-07-02T14:41:08;1.87;;;1.63;;
15673;SDS011;7937;48.090;16.212;2023-07-02T14:44:11;1.60;;;1.50;;
15673;SDS011;7937;48.090;16.212;2023-07-02T14:47:15;3.60;;;1.83;;
15673;SDS011;7937;48.090;16.212;2023-07-02T14:50:17;2.43;;;1.73;;
15673;SDS011;7937;48.090;16.212;2023-07-02T14:53:20;4.30;;;1.97;;
15673;SDS011;7937;48.090;16.212;2023-07-02T14:56:23;2.67;;;1.70;;
15673;SDS011;7937;48.090;16.212;2023-07-02T14:59:25;1.97;;;1.77;;
15673;SDS011;7937;48.090;16.212;2023-07-02T15:02:27;2.73;;;1.90;;
15673;SDS011;7937;48.090;16.212;2023-07-02T15:05:30;2.30;;;1.80;;
15673;SDS011;7937;48.090;16.212;2023-07-02T15:08:32;3.20;;;2.10;;
15673;SDS011;7937;48.090;16.212;2023-07-02T15:11:35;2.60;;;1.77;;
15673;SDS011;7937;48.090;16.212;2023-07-02T15:14:37;2.47;;;2.10;;
15673;SDS011;7937;48.090;16.212;2023-07-02T15:17:39;2.13;;;1.93;;
15673;SDS011;7937;48.090;16.212;2023-07-02T15:20:43;2.53;;;2.00;;
15673;SDS011;7937;48.090;16.212;2023-07-02T15:23:48;3.53;;;2.27;;
15673;SDS011;7937;48.090;16.212;2023-07-02T15:26:50;4.90;;;2.40;;
15673;SDS011;7937;48.090;16.212;2023-07-02T15:29:52;3.33;;;2.40;;
15673;SDS011;7937;48.090;16.212;2023-07-02T15:32:54;3.23;;;2.40;;
15673;SDS011;7937;48.090;16.212;2023-07-02T15:35:59;3.60;;;2.40;;
15673;SDS011;7937;48.090;16.212;2023-07-02T15:39:03;3.93;;;2.47;;
15673;SDS011;7937;48.090;16.212;2023-07-02T15:42:05;3.13;;;2.17;;
15673;SDS011;7937;48.090;16.212;2023-07-02T15:45:07;4.67;;;2.60;;
15673;SDS011;7937;48.090;16.212;2023-07-02T15:48:11;4.20;;;2.30;;
15673;SDS011;7937;48.090;16.212;2023-07-02T15:51:14;2.93;;;2.17;;
15673;SDS011;7937;48.090;16.212;2023-07-02T15:54:16;4.63;;;2.90;;
15673;SDS011;7937;48.090;16.212;2023-07-02T15:57:18;3.47;;;2.70;;
15673;SDS011;7937;48.090;16.212;2023-07-02T16:00:20;3.07;;;2.67;;
15673;SDS011;7937;48.090;16.212;2023-07-02T16:03:22;3.17;;;2.47;;
15673;SDS011;7937;48.090;16.212;2023-07-02T16:06:25;4.10;;;2.93;;
15673;SDS011;7937;48.090;16.212;2023-07-02T16:09:33;5.03;;;2.70;;
15673;SDS011;7937;48.090;16.212;2023-07-02T16:12:35;5.00;;;2.83;;
15673;SDS011;7937;48.090;16.212;2023-07-02T16:15:38;4.47;;;2.70;;
15673;SDS011;7937;48.090;16.212;2023-07-02T16:18:41;3.50;;;2.87;;
15673;SDS011;7937;48.090;16.212;2023-07-02T16:21:43;4.57;;;3.00;;
15673;SDS011;7937;48.090;16.212;2023-07-02T16:24:46;3.80;;;3.10;;
15673;SDS011;7937;48.090;16.212;2023-07-02T16:27:48;3.20;;;2.90;;
15673;SDS011;7937;48.090;16.212;2023-07-02T16:30:50;4.57;;;2.97;;
15673;SDS011;7937;48.090;16.212;2023-07-02T16:33:53;5.00;;;3.13;;
15673;SDS011;7937;48.090;16.212;2023-07-02T16:36:55;4.03;;;2.60;;
15673;SDS011;7937;48.090;16.212;2023-07-02T16:39:58;3.73;;;2.83;;
15673;SDS011;7937;48.090;16.212;2023-07-02T16:43:01;3.40;;;2.73;;
15673;SDS011;7937;48.090;16.212;2023-07-02T16:46:04;6.23;;;3.13;;
15673;SDS011;7937;48.090;16.212;2023-07-02T16:49:07;3.90;;;3.03;;
15673;SDS011;7937;48.090;16.212;2023-07-02T16:52:10;3.67;;;2.90;;
15673;SDS011;7937;48.090;16.212;2023-07-02T16:55:12;3.73;;;3.20;;
15673;SDS011;7937;48.090;16.212;2023-07-02T16:58:15;5.03;;;3.50;;
15673;SDS011;7937;48.090;16.212;2023-07-02T17:01:17;4.90;;;3.00;;
15673;SDS011;7937;48.090;16.212;2023-07-02T17:04:20;4.53;;;3.60;;
15673;SDS011;7937;48.090;16.212;2023-07-02T17:07:24;6.17;;;2.97;;
15673;SDS011;7937;48.090;16.212;2023-07-02T17:10:27;4.40;;;2.83;;
15673;SDS011;7937;48.090;16.212;2023-07-02T17:13:29;4.70;;;3.30;;
15673;SDS011;7937;48.090;16.212;2023-07-02T17:16:32;4.27;;;3.40;;
15673;SDS011;7937;48.090;16.212;2023-07-02T17:19:38;6.00;;;3.47;;
15673;SDS011;7937;48.090;16.212;2023-07-02T17:22:42;7.00;;;3.73;;
15673;SDS011;7937;48.090;16.212;2023-07-02T17:25:45;5.10;;;3.20;;
15673;SDS011;7937;48.090;16.212;2023-07-02T17:28:48;4.33;;;3.60;;
15673;SDS011;7937;48.090;16.212;2023-07-02T17:31:51;4.23;;;3.10;;
15673;SDS011;7937;48.090;16.212;2023-07-02T17:34:56;6.43;;;3.83;;
15673;SDS011;7937;48.090;16.212;2023-07-02T17:37:59;4.03;;;3.43;;
15673;SDS011;7937;48.090;16.212;2023-07-02T17:41:02;4.03;;;3.03;;
15673;SDS011;7937;48.090;16.212;2023-07-02T17:44:07;5.30;;;3.67;;
15673;SDS011;7937;48.090;16.212;2023-07-02T17:47:10;5.57;;;3.60;;
15673;SDS011;7937;48.090;16.212;2023-07-02T17:50:15;6.13;;;4.00;;
15673;SDS011;7937;48.090;16.212;2023-07-02T17:53:19;4.97;;;3.53;;
15673;SDS011;7937;48.090;16.212;2023-07-02T17:56:22;6.07;;;3.63;;
15673;SDS011;7937;48.090;16.212;2023-07-02T17:59:24;4.27;;;3.40;;
15673;SDS011;7937;48.090;16.212;2023-07-02T18:02:29;6.77;;;3.73;;
15673;SDS011;7937;48.090;16.212;2023-07-02T18:05:31;5.20;;;3.90;;
15673;SDS011;7937;48.090;16.212;2023-07-02T18:08:34;5.23;;;3.70;;
15673;SDS011;7937;48.090;16.212;2023-07-02T18:11:36;4.97;;;3.67;;
15673;SDS011;7937;48.090;16.212;2023-07-02T18:14:39;7.23;;;3.63;;
15673;SDS011;7937;48.090;16.212;2023-07-02T18:17:43;4.03;;;3.47;;
15673;SDS011;7937;48.090;16.212;2023-07-02T18:20:46;6.53;;;3.83;;
15673;SDS011;7937;48.090;16.212;2023-07-02T18:23:51;5.23;;;4.00;;
15673;SDS011;7937;48.090;16.212;2023-07-02T18:26:55;4.73;;;3.83;;